sensor_id;sensor_type;location;lat;lon;timestamp;P1;durP1;ratioP1;P2;durP2;ratioP2
635;SDS011;302;50.206;8.196;2023-03-31T00:02:16;2.13;;;0.97;;
635;SDS011;302;50.206;8.196;2023-03-31T00:04:45;1.95;;;1.10;;
635;SDS011;302;50.206;8.196;2023-03-31T00:07:16;1.35;;;1.17;;
635;SDS011;302;50.206;8.196;2023-03-31T00:09:45;4.45;;;1.50;;
635;SDS011;302;50.206;8.196;2023-03-31T00:12:11;3.00;;;1.00;;
635;SDS011;302;50.206;8.196;2023-03-31T00:14:37;2.75;;;1.20;;
635;SDS011;302;50.206;8.196;2023-03-31T00:17:02;3.70;;;1.50;;
635;SDS011;302;50.206;8.196;2023-03-31T00:19:28;7.30;;;2.23;;
635;SDS011;302;50.206;8.196;2023-03-31T00:21:53;2.10;;;1.30;;
635;SDS011;302;50.206;8.196;2023-03-31T00:24:18;2.00;;;1.30;;
635;SDS011;302;50.206;8.196;2023-03-31T00:26:44;2.30;;;1.47;;
635;SDS011;302;50.206;8.196;2023-03-31T00:29:11;3.43;;;1.60;;
635;SDS011;302;50.206;8.196;2023-03-31T00:31:37;1.80;;;1.52;;
635;SDS011;302;50.206;8.196;2023-03-31T00:34:02;2.47;;;1.60;;
635;SDS011;302;50.206;8.196;2023-03-31T00:36:28;1.87;;;1.50;;
635;SDS011;302;50.206;8.196;2023-03-31T00:38:53;3.13;;;1.30;;
635;SDS011;302;50.206;8.196;2023-03-31T00:41:20;2.30;;;1.70;;
635;SDS011;302;50.206;8.196;2023-03-31T00:44:06;1.63;;;1.10;;
635;SDS011;302;50.206;8.196;2023-03-31T00:46:33;6.50;;;2.10;;
635;SDS011;302;50.206;8.196;2023-03-31T00:49:00;4.65;;;1.88;;
635;SDS011;302;50.206;8.196;2023-03-31T00:51:26;3.10;;;1.20;;
635;SDS011;302;50.206;8.196;2023-03-31T00:53:53;1.92;;;1.38;;
635;SDS011;302;50.206;8.196;2023-03-31T00:56:21;1.83;;;1.20;;
635;SDS011;302;50.206;8.196;2023-03-31T00:58:46;2.67;;;1.40;;
635;SDS011;302;50.206;8.196;2023-03-31T01:01:14;2.80;;;1.40;;
635;SDS011;302;50.206;8.196;2023-03-31T01:03:41;2.05;;;1.35;;
635;SDS011;302;50.206;8.196;2023-03-31T01:06:06;2.17;;;1.00;;
635;SDS011;302;50.206;8.196;2023-03-31T01:08:34;3.42;;;1.70;;
635;SDS011;302;50.206;8.196;2023-03-31T01:11:01;2.13;;;1.60;;
635;SDS011;302;50.206;8.196;2023-03-31T01:13:27;3.97;;;2.42;;
635;SDS011;302;50.206;8.196;2023-03-31T01:15:53;2.03;;;1.70;;
635;SDS011;302;50.206;8.196;2023-03-31T01:18:18;3.30;;;1.60;;
635;SDS011;302;50.206;8.196;2023-03-31T01:31:34;2.88;;;1.23;;
635;SDS011;302;50.206;8.196;2023-03-31T01:44:42;2.38;;;1.80;;
635;SDS011;302;50.206;8.196;2023-03-31T01:49:51;2.83;;;1.30;;
635;SDS011;302;50.206;8.196;2023-03-31T01:52:21;5.13;;;1.80;;
635;SDS011;302;50.206;8.196;2023-03-31T01:54:52;2.28;;;1.85;;
635;SDS011;302;50.206;8.196;2023-03-31T01:57:21;3.72;;;2.20;;
635;SDS011;302;50.206;8.196;2023-03-31T02:02:44;2.90;;;1.40;;
635;SDS011;302;50.206;8.196;2023-03-31T02:05:13;3.17;;;1.92;;
635;SDS011;302;50.206;8.196;2023-03-31T02:07:43;4.05;;;2.28;;
635;SDS011;302;50.206;8.196;2023-03-31T02:10:12;2.50;;;1.40;;
635;SDS011;302;50.206;8.196;2023-03-31T02:12:38;3.10;;;1.23;;
635;SDS011;302;50.206;8.196;2023-03-31T02:15:06;2.00;;;1.50;;
635;SDS011;302;50.206;8.196;2023-03-31T02:17:33;3.10;;;1.70;;
635;SDS011;302;50.206;8.196;2023-03-31T02:20:04;6.00;;;1.60;;
635;SDS011;302;50.206;8.196;2023-03-31T02:22:31;5.32;;;2.72;;
635;SDS011;302;50.206;8.196;2023-03-31T02:24:58;1.77;;;1.50;;
635;SDS011;302;50.206;8.196;2023-03-31T02:27:32;6.03;;;2.40;;
635;SDS011;302;50.206;8.196;2023-03-31T02:29:59;2.05;;;1.58;;
635;SDS011;302;50.206;8.196;2023-03-31T02:32:40;1.93;;;1.70;;
635;SDS011;302;50.206;8.196;2023-03-31T02:35:07;5.53;;;1.73;;
635;SDS011;302;50.206;8.196;2023-03-31T02:37:34;2.33;;;1.50;;
635;SDS011;302;50.206;8.196;2023-03-31T02:40:00;3.53;;;2.17;;
635;SDS011;302;50.206;8.196;2023-03-31T02:42:27;4.47;;;1.75;;
635;SDS011;302;50.206;8.196;2023-03-31T02:44:52;4.10;;;1.50;;
635;SDS011;302;50.206;8.196;2023-03-31T02:47:17;2.90;;;1.57;;
635;SDS011;302;50.206;8.196;2023-03-31T02:49:45;1.83;;;1.38;;
635;SDS011;302;50.206;8.196;2023-03-31T02:57:48;4.40;;;1.48;;
635;SDS011;302;50.206;8.196;2023-03-31T03:05:31;2.40;;;2.17;;
635;SDS011;302;50.206;8.196;2023-03-31T03:08:14;5.00;;;1.77;;
635;SDS011;302;50.206;8.196;2023-03-31T03:10:50;2.97;;;1.73;;
635;SDS011;302;50.206;8.196;2023-03-31T03:13:22;3.50;;;1.30;;
635;SDS011;302;50.206;8.196;2023-03-31T03:16:10;2.13;;;1.48;;
635;SDS011;302;50.206;8.196;2023-03-31T03:18:37;3.85;;;1.73;;
635;SDS011;302;50.206;8.196;2023-03-31T03:21:02;5.90;;;1.70;;
635;SDS011;302;50.206;8.196;2023-03-31T03:23:28;2.67;;;2.03;;
635;SDS011;302;50.206;8.196;2023-03-31T03:25:53;4.03;;;1.50;;
635;SDS011;302;50.206;8.196;2023-03-31T03:28:18;4.40;;;1.70;;
635;SDS011;302;50.206;8.196;2023-03-31T03:30:43;5.53;;;1.83;;
635;SDS011;302;50.206;8.196;2023-03-31T03:33:09;4.90;;;1.80;;
635;SDS011;302;50.206;8.196;2023-03-31T03:35:35;2.17;;;1.75;;
635;SDS011;302;50.206;8.196;2023-03-31T03:38:00;3.03;;;1.80;;
635;SDS011;302;50.206;8.196;2023-03-31T03:40:25;3.20;;;1.97;;
635;SDS011;302;50.206;8.196;2023-03-31T03:42:50;4.13;;;2.07;;
635;SDS011;302;50.206;8.196;2023-03-31T03:45:15;2.92;;;2.13;;
635;SDS011;302;50.206;8.196;2023-03-31T03:47:40;2.00;;;1.70;;
635;SDS011;302;50.206;8.196;2023-03-31T03:50:06;3.03;;;2.53;;
635;SDS011;302;50.206;8.196;2023-03-31T03:52:31;3.43;;;2.60;;
635;SDS011;302;50.206;8.196;2023-03-31T03:54:56;5.70;;;2.70;;
635;SDS011;302;50.206;8.196;2023-03-31T03:57:21;3.75;;;2.55;;
635;SDS011;302;50.206;8.196;2023-03-31T03:59:46;4.70;;;2.20;;
635;SDS011;302;50.206;8.196;2023-03-31T04:02:12;5.53;;;2.33;;
635;SDS011;302;50.206;8.196;2023-03-31T04:04:37;2.27;;;1.97;;
635;SDS011;302;50.206;8.196;2023-03-31T04:07:02;3.50;;;2.65;;
635;SDS011;302;50.206;8.196;2023-03-31T04:09:27;3.23;;;2.67;;
635;SDS011;302;50.206;8.196;2023-03-31T04:11:52;3.53;;;2.37;;
635;SDS011;302;50.206;8.196;2023-03-31T04:14:18;3.03;;;2.77;;
635;SDS011;302;50.206;8.196;2023-03-31T04:16:43;5.10;;;3.00;;
635;SDS011;302;50.206;8.196;2023-03-31T04:19:10;3.42;;;2.38;;
635;SDS011;302;50.206;8.196;2023-03-31T04:21:37;3.03;;;2.38;;
635;SDS011;302;50.206;8.196;2023-03-31T04:24:09;4.03;;;2.75;;
635;SDS011;302;50.206;8.196;2023-03-31T04:26:35;3.53;;;2.42;;
635;SDS011;302;50.206;8.196;2023-03-31T04:29:07;6.55;;;2.30;;
635;SDS011;302;50.206;8.196;2023-03-31T04:31:33;3.53;;;2.50;;
635;SDS011;302;50.206;8.196;2023-03-31T04:34:02;3.20;;;2.33;;
635;SDS011;302;50.206;8.196;2023-03-31T04:36:30;4.80;;;1.90;;
635;SDS011;302;50.206;8.196;2023-03-31T04:38:56;3.90;;;2.60;;
635;SDS011;302;50.206;8.196;2023-03-31T04:41:21;2.03;;;1.83;;
635;SDS011;302;50.206;8.196;2023-03-31T04:43:47;5.70;;;2.00;;
635;SDS011;302;50.206;8.196;2023-03-31T04:46:12;5.70;;;2.30;;
635;SDS011;302;50.206;8.196;2023-03-31T04:48:37;3.53;;;2.10;;
635;SDS011;302;50.206;8.196;2023-03-31T04:51:03;3.53;;;2.40;;
635;SDS011;302;50.206;8.196;2023-03-31T04:53:28;2.50;;;2.27;;
635;SDS011;302;50.206;8.196;2023-03-31T04:55:53;4.18;;;2.95;;
635;SDS011;302;50.206;8.196;2023-03-31T04:58:18;2.67;;;2.10;;
635;SDS011;302;50.206;8.196;2023-03-31T05:00:43;2.25;;;2.05;;
635;SDS011;302;50.206;8.196;2023-03-31T05:03:08;2.30;;;2.10;;
635;SDS011;302;50.206;8.196;2023-03-31T05:05:34;4.07;;;3.17;;
635;SDS011;302;50.206;8.196;2023-03-31T05:07:59;2.70;;;2.43;;
635;SDS011;302;50.206;8.196;2023-03-31T05:10:24;3.05;;;2.47;;
635;SDS011;302;50.206;8.196;2023-03-31T05:12:49;3.90;;;2.33;;
635;SDS011;302;50.206;8.196;2023-03-31T05:15:15;4.70;;;3.93;;
635;SDS011;302;50.206;8.196;2023-03-31T05:17:40;2.63;;;2.07;;
635;SDS011;302;50.206;8.196;2023-03-31T05:20:05;2.57;;;1.53;;
635;SDS011;302;50.206;8.196;2023-03-31T05:22:38;2.10;;;1.60;;
635;SDS011;302;50.206;8.196;2023-03-31T05:25:04;1.70;;;1.60;;
635;SDS011;302;50.206;8.196;2023-03-31T05:27:30;3.55;;;1.77;;
635;SDS011;302;50.206;8.196;2023-03-31T05:29:56;2.93;;;1.80;;
635;SDS011;302;50.206;8.196;2023-03-31T05:32:21;2.73;;;1.90;;
635;SDS011;302;50.206;8.196;2023-03-31T05:34:46;3.78;;;2.00;;
635;SDS011;302;50.206;8.196;2023-03-31T05:37:12;4.88;;;2.00;;
635;SDS011;302;50.206;8.196;2023-03-31T05:39:37;2.03;;;1.60;;
635;SDS011;302;50.206;8.196;2023-03-31T05:42:02;2.97;;;1.83;;
635;SDS011;302;50.206;8.196;2023-03-31T05:44:29;3.92;;;2.60;;
635;SDS011;302;50.206;8.196;2023-03-31T05:46:54;5.45;;;2.42;;
635;SDS011;302;50.206;8.196;2023-03-31T05:49:20;4.63;;;2.40;;
635;SDS011;302;50.206;8.196;2023-03-31T05:51:45;3.72;;;2.80;;
635;SDS011;302;50.206;8.196;2023-03-31T05:54:10;2.27;;;2.07;;
635;SDS011;302;50.206;8.196;2023-03-31T05:56:36;3.70;;;2.80;;
635;SDS011;302;50.206;8.196;2023-03-31T05:59:01;4.50;;;3.10;;
635;SDS011;302;50.206;8.196;2023-03-31T06:01:26;2.97;;;2.30;;
635;SDS011;302;50.206;8.196;2023-03-31T06:03:51;3.00;;;2.70;;
635;SDS011;302;50.206;8.196;2023-03-31T06:06:17;2.60;;;2.40;;
635;SDS011;302;50.206;8.196;2023-03-31T06:08:43;4.70;;;2.60;;
635;SDS011;302;50.206;8.196;2023-03-31T06:11:09;3.92;;;2.47;;
635;SDS011;302;50.206;8.196;2023-03-31T06:13:35;5.10;;;2.20;;
635;SDS011;302;50.206;8.196;2023-03-31T06:16:00;2.50;;;2.30;;
635;SDS011;302;50.206;8.196;2023-03-31T06:18:26;2.53;;;2.30;;
635;SDS011;302;50.206;8.196;2023-03-31T06:20:52;2.50;;;1.85;;
635;SDS011;302;50.206;8.196;2023-03-31T06:23:17;2.70;;;2.37;;
635;SDS011;302;50.206;8.196;2023-03-31T06:25:42;2.80;;;2.43;;
635;SDS011;302;50.206;8.196;2023-03-31T06:28:08;3.15;;;2.42;;
635;SDS011;302;50.206;8.196;2023-03-31T06:30:33;4.97;;;2.30;;
635;SDS011;302;50.206;8.196;2023-03-31T06:32:59;3.97;;;3.57;;
635;SDS011;302;50.206;8.196;2023-03-31T06:35:24;2.17;;;1.83;;
635;SDS011;302;50.206;8.196;2023-03-31T06:37:49;2.93;;;2.40;;
635;SDS011;302;50.206;8.196;2023-03-31T06:40:14;2.57;;;2.27;;
635;SDS011;302;50.206;8.196;2023-03-31T06:42:40;3.70;;;2.80;;
635;SDS011;302;50.206;8.196;2023-03-31T06:45:05;2.77;;;2.57;;
635;SDS011;302;50.206;8.196;2023-03-31T06:47:30;3.13;;;2.70;;
635;SDS011;302;50.206;8.196;2023-03-31T06:49:55;4.40;;;2.97;;
635;SDS011;302;50.206;8.196;2023-03-31T06:52:21;2.93;;;1.67;;
635;SDS011;302;50.206;8.196;2023-03-31T06:54:46;5.37;;;2.00;;
635;SDS011;302;50.206;8.196;2023-03-31T06:57:11;1.97;;;1.77;;
635;SDS011;302;50.206;8.196;2023-03-31T06:59:36;3.10;;;2.03;;
635;SDS011;302;50.206;8.196;2023-03-31T07:02:02;2.97;;;2.50;;
635;SDS011;302;50.206;8.196;2023-03-31T07:04:27;3.00;;;2.70;;
635;SDS011;302;50.206;8.196;2023-03-31T07:06:52;1.73;;;1.50;;
635;SDS011;302;50.206;8.196;2023-03-31T07:09:17;2.27;;;1.70;;
635;SDS011;302;50.206;8.196;2023-03-31T07:11:42;1.98;;;1.77;;
635;SDS011;302;50.206;8.196;2023-03-31T07:14:08;2.38;;;1.77;;
635;SDS011;302;50.206;8.196;2023-03-31T07:16:33;1.80;;;1.20;;
635;SDS011;302;50.206;8.196;2023-03-31T07:19:00;2.40;;;1.05;;
635;SDS011;302;50.206;8.196;2023-03-31T07:21:28;1.13;;;1.02;;
635;SDS011;302;50.206;8.196;2023-03-31T07:23:53;3.33;;;0.90;;
635;SDS011;302;50.206;8.196;2023-03-31T07:26:18;0.93;;;0.73;;
635;SDS011;302;50.206;8.196;2023-03-31T07:28:43;1.00;;;0.70;;
635;SDS011;302;50.206;8.196;2023-03-31T07:31:09;0.90;;;0.67;;
635;SDS011;302;50.206;8.196;2023-03-31T07:33:34;1.10;;;0.60;;
635;SDS011;302;50.206;8.196;2023-03-31T07:36:02;0.90;;;0.60;;
635;SDS011;302;50.206;8.196;2023-03-31T07:38:28;1.05;;;0.60;;
635;SDS011;302;50.206;8.196;2023-03-31T07:40:53;1.15;;;0.70;;
635;SDS011;302;50.206;8.196;2023-03-31T07:43:18;0.90;;;0.80;;
635;SDS011;302;50.206;8.196;2023-03-31T07:45:43;0.90;;;0.50;;
635;SDS011;302;50.206;8.196;2023-03-31T07:48:08;0.90;;;0.52;;
635;SDS011;302;50.206;8.196;2023-03-31T07:50:33;1.40;;;0.50;;
635;SDS011;302;50.206;8.196;2023-03-31T07:52:59;2.80;;;0.63;;
635;SDS011;302;50.206;8.196;2023-03-31T07:55:24;1.88;;;0.75;;
635;SDS011;302;50.206;8.196;2023-03-31T07:57:50;1.10;;;0.50;;
635;SDS011;302;50.206;8.196;2023-03-31T08:00:15;1.00;;;0.50;;
635;SDS011;302;50.206;8.196;2023-03-31T08:02:41;0.93;;;0.50;;
635;SDS011;302;50.206;8.196;2023-03-31T08:05:07;1.43;;;0.50;;
635;SDS011;302;50.206;8.196;2023-03-31T08:07:36;0.97;;;0.50;;
635;SDS011;302;50.206;8.196;2023-03-31T08:10:02;0.90;;;0.60;;
635;SDS011;302;50.206;8.196;2023-03-31T08:12:27;1.00;;;0.60;;
635;SDS011;302;50.206;8.196;2023-03-31T08:14:52;1.00;;;0.65;;
635;SDS011;302;50.206;8.196;2023-03-31T08:17:18;1.10;;;0.60;;
635;SDS011;302;50.206;8.196;2023-03-31T08:19:43;1.07;;;0.63;;
635;SDS011;302;50.206;8.196;2023-03-31T08:22:08;1.20;;;0.70;;
635;SDS011;302;50.206;8.196;2023-03-31T08:24:33;1.17;;;0.63;;
635;SDS011;302;50.206;8.196;2023-03-31T08:26:58;1.93;;;0.80;;
635;SDS011;302;50.206;8.196;2023-03-31T08:29:23;0.97;;;0.60;;
635;SDS011;302;50.206;8.196;2023-03-31T08:31:49;1.00;;;0.60;;
635;SDS011;302;50.206;8.196;2023-03-31T08:34:14;1.97;;;0.63;;
635;SDS011;302;50.206;8.196;2023-03-31T08:36:40;1.40;;;0.60;;
635;SDS011;302;50.206;8.196;2023-03-31T08:39:05;3.63;;;1.27;;
635;SDS011;302;50.206;8.196;2023-03-31T08:41:46;1.20;;;0.70;;
635;SDS011;302;50.206;8.196;2023-03-31T08:44:14;1.92;;;0.77;;
635;SDS011;302;50.206;8.196;2023-03-31T08:46:40;1.70;;;0.82;;
635;SDS011;302;50.206;8.196;2023-03-31T08:49:06;1.40;;;0.90;;
635;SDS011;302;50.206;8.196;2023-03-31T08:51:51;1.63;;;1.00;;
635;SDS011;302;50.206;8.196;2023-03-31T08:54:30;1.10;;;0.80;;
635;SDS011;302;50.206;8.196;2023-03-31T08:56:56;1.27;;;0.80;;
635;SDS011;302;50.206;8.196;2023-03-31T08:59:26;1.47;;;0.77;;
635;SDS011;302;50.206;8.196;2023-03-31T09:02:13;1.10;;;1.00;;
635;SDS011;302;50.206;8.196;2023-03-31T09:04:55;1.30;;;1.10;;
635;SDS011;302;50.206;8.196;2023-03-31T09:10:11;5.93;;;1.90;;
635;SDS011;302;50.206;8.196;2023-03-31T09:15:13;4.88;;;1.60;;
635;SDS011;302;50.206;8.196;2023-03-31T09:17:44;1.40;;;1.20;;
635;SDS011;302;50.206;8.196;2023-03-31T09:20:13;2.47;;;1.30;;
635;SDS011;302;50.206;8.196;2023-03-31T09:22:42;1.27;;;1.15;;
635;SDS011;302;50.206;8.196;2023-03-31T09:25:27;1.98;;;1.20;;
635;SDS011;302;50.206;8.196;2023-03-31T09:27:56;3.35;;;1.75;;
635;SDS011;302;50.206;8.196;2023-03-31T09:30:24;1.88;;;1.35;;
635;SDS011;302;50.206;8.196;2023-03-31T09:33:01;4.28;;;1.90;;
635;SDS011;302;50.206;8.196;2023-03-31T09:35:27;3.10;;;2.05;;
635;SDS011;302;50.206;8.196;2023-03-31T09:37:53;3.40;;;2.05;;
635;SDS011;302;50.206;8.196;2023-03-31T09:40:22;3.30;;;1.63;;
635;SDS011;302;50.206;8.196;2023-03-31T09:42:50;2.63;;;2.38;;
635;SDS011;302;50.206;8.196;2023-03-31T09:45:18;2.67;;;1.55;;
635;SDS011;302;50.206;8.196;2023-03-31T09:47:45;2.47;;;1.83;;
635;SDS011;302;50.206;8.196;2023-03-31T09:50:11;2.05;;;1.38;;
635;SDS011;302;50.206;8.196;2023-03-31T09:52:37;4.50;;;1.90;;
635;SDS011;302;50.206;8.196;2023-03-31T09:55:05;2.25;;;1.65;;
635;SDS011;302;50.206;8.196;2023-03-31T09:57:34;3.80;;;1.67;;
635;SDS011;302;50.206;8.196;2023-03-31T10:00:13;1.50;;;1.40;;
635;SDS011;302;50.206;8.196;2023-03-31T10:02:44;2.17;;;1.63;;
635;SDS011;302;50.206;8.196;2023-03-31T10:08:13;2.80;;;1.85;;
635;SDS011;302;50.206;8.196;2023-03-31T10:13:18;1.80;;;1.00;;
635;SDS011;302;50.206;8.196;2023-03-31T10:15:44;1.95;;;0.70;;
635;SDS011;302;50.206;8.196;2023-03-31T10:18:13;0.90;;;0.50;;
635;SDS011;302;50.206;8.196;2023-03-31T10:20:40;4.03;;;0.93;;
635;SDS011;302;50.206;8.196;2023-03-31T10:23:17;1.40;;;0.63;;
635;SDS011;302;50.206;8.196;2023-03-31T10:25:43;1.95;;;0.68;;
635;SDS011;302;50.206;8.196;2023-03-31T10:28:10;1.10;;;0.90;;
635;SDS011;302;50.206;8.196;2023-03-31T10:30:36;2.00;;;1.17;;
635;SDS011;302;50.206;8.196;2023-03-31T10:33:10;1.35;;;0.90;;
635;SDS011;302;50.206;8.196;2023-03-31T10:35:38;2.97;;;1.00;;
635;SDS011;302;50.206;8.196;2023-03-31T10:38:04;1.43;;;1.20;;
635;SDS011;302;50.206;8.196;2023-03-31T10:40:31;2.28;;;1.17;;
635;SDS011;302;50.206;8.196;2023-03-31T10:42:58;4.75;;;1.02;;
635;SDS011;302;50.206;8.196;2023-03-31T10:45:28;2.75;;;1.45;;
635;SDS011;302;50.206;8.196;2023-03-31T10:47:57;6.10;;;1.30;;
635;SDS011;302;50.206;8.196;2023-03-31T10:50:27;3.90;;;1.33;;
635;SDS011;302;50.206;8.196;2023-03-31T10:52:54;3.95;;;1.15;;
635;SDS011;302;50.206;8.196;2023-03-31T10:55:26;2.67;;;0.90;;
635;SDS011;302;50.206;8.196;2023-03-31T10:57:55;2.70;;;1.30;;
635;SDS011;302;50.206;8.196;2023-03-31T11:00:30;4.90;;;1.20;;
635;SDS011;302;50.206;8.196;2023-03-31T11:06:05;2.85;;;1.30;;
635;SDS011;302;50.206;8.196;2023-03-31T11:10:52;3.22;;;1.15;;
635;SDS011;302;50.206;8.196;2023-03-31T11:18:49;5.15;;;1.92;;
635;SDS011;302;50.206;8.196;2023-03-31T11:21:22;1.90;;;1.33;;
635;SDS011;302;50.206;8.196;2023-03-31T11:26:29;3.63;;;1.42;;
635;SDS011;302;50.206;8.196;2023-03-31T11:28:59;2.53;;;1.55;;
635;SDS011;302;50.206;8.196;2023-03-31T11:31:39;2.85;;;1.52;;
635;SDS011;302;50.206;8.196;2023-03-31T11:34:10;2.80;;;1.77;;
635;SDS011;302;50.206;8.196;2023-03-31T11:36:42;1.95;;;1.15;;
635;SDS011;302;50.206;8.196;2023-03-31T11:39:12;2.38;;;1.30;;
635;SDS011;302;50.206;8.196;2023-03-31T11:41:42;3.00;;;1.38;;
635;SDS011;302;50.206;8.196;2023-03-31T11:44:12;2.45;;;1.40;;
635;SDS011;302;50.206;8.196;2023-03-31T11:46:40;3.45;;;1.52;;
635;SDS011;302;50.206;8.196;2023-03-31T11:49:14;2.17;;;1.38;;
635;SDS011;302;50.206;8.196;2023-03-31T11:54:32;3.70;;;1.23;;
635;SDS011;302;50.206;8.196;2023-03-31T11:57:00;3.10;;;1.40;;
635;SDS011;302;50.206;8.196;2023-03-31T11:59:27;1.52;;;1.20;;
635;SDS011;302;50.206;8.196;2023-03-31T12:01:57;1.90;;;1.38;;
635;SDS011;302;50.206;8.196;2023-03-31T12:04:30;3.35;;;1.05;;
635;SDS011;302;50.206;8.196;2023-03-31T12:06:59;4.20;;;1.98;;
635;SDS011;302;50.206;8.196;2023-03-31T12:16:50;4.18;;;1.92;;
635;SDS011;302;50.206;8.196;2023-03-31T12:22:04;2.78;;;1.10;;
635;SDS011;302;50.206;8.196;2023-03-31T12:24:32;1.80;;;1.10;;
635;SDS011;302;50.206;8.196;2023-03-31T12:29:33;2.20;;;1.50;;
635;SDS011;302;50.206;8.196;2023-03-31T12:32:00;2.97;;;1.17;;
635;SDS011;302;50.206;8.196;2023-03-31T12:34:26;2.53;;;1.48;;
635;SDS011;302;50.206;8.196;2023-03-31T12:50:04;3.50;;;1.30;;
635;SDS011;302;50.206;8.196;2023-03-31T12:52:43;1.25;;;0.90;;
635;SDS011;302;50.206;8.196;2023-03-31T12:55:30;2.50;;;1.55;;
635;SDS011;302;50.206;8.196;2023-03-31T13:01:00;2.20;;;1.33;;
635;SDS011;302;50.206;8.196;2023-03-31T13:03:34;3.42;;;1.10;;
635;SDS011;302;50.206;8.196;2023-03-31T13:06:00;1.98;;;1.50;;
635;SDS011;302;50.206;8.196;2023-03-31T13:16:41;1.40;;;1.00;;
635;SDS011;302;50.206;8.196;2023-03-31T13:19:08;1.43;;;1.00;;
635;SDS011;302;50.206;8.196;2023-03-31T13:21:52;4.93;;;1.50;;
635;SDS011;302;50.206;8.196;2023-03-31T13:24:20;1.33;;;0.88;;
635;SDS011;302;50.206;8.196;2023-03-31T13:26:46;2.22;;;1.30;;
635;SDS011;302;50.206;8.196;2023-03-31T13:34:46;5.35;;;2.60;;
635;SDS011;302;50.206;8.196;2023-03-31T13:39:44;1.73;;;1.63;;
635;SDS011;302;50.206;8.196;2023-03-31T13:45:08;1.75;;;1.02;;
635;SDS011;302;50.206;8.196;2023-03-31T13:47:52;1.25;;;0.98;;
635;SDS011;302;50.206;8.196;2023-03-31T13:53:02;2.00;;;1.75;;
635;SDS011;302;50.206;8.196;2023-03-31T13:58:19;3.80;;;1.43;;
635;SDS011;302;50.206;8.196;2023-03-31T14:06:18;1.17;;;0.70;;
635;SDS011;302;50.206;8.196;2023-03-31T14:08:54;1.15;;;0.80;;
635;SDS011;302;50.206;8.196;2023-03-31T14:11:22;2.10;;;1.35;;
635;SDS011;302;50.206;8.196;2023-03-31T14:13:58;1.20;;;0.80;;
635;SDS011;302;50.206;8.196;2023-03-31T14:16:23;1.65;;;0.82;;
635;SDS011;302;50.206;8.196;2023-03-31T14:18:49;3.00;;;0.70;;
635;SDS011;302;50.206;8.196;2023-03-31T14:21:21;6.25;;;1.20;;
635;SDS011;302;50.206;8.196;2023-03-31T14:23:52;2.35;;;1.20;;
635;SDS011;302;50.206;8.196;2023-03-31T14:29:02;4.30;;;1.13;;
635;SDS011;302;50.206;8.196;2023-03-31T14:36:37;3.13;;;1.38;;
635;SDS011;302;50.206;8.196;2023-03-31T14:39:11;4.00;;;1.08;;
635;SDS011;302;50.206;8.196;2023-03-31T14:41:37;1.70;;;1.10;;
635;SDS011;302;50.206;8.196;2023-03-31T14:44:04;1.30;;;1.00;;
635;SDS011;302;50.206;8.196;2023-03-31T14:46:30;2.25;;;1.08;;
635;SDS011;302;50.206;8.196;2023-03-31T14:49:04;1.15;;;0.80;;
635;SDS011;302;50.206;8.196;2023-03-31T14:51:30;15.55;;;1.55;;
635;SDS011;302;50.206;8.196;2023-03-31T14:53:55;4.38;;;1.08;;
635;SDS011;302;50.206;8.196;2023-03-31T14:56:22;2.27;;;1.20;;
635;SDS011;302;50.206;8.196;2023-03-31T14:58:50;1.75;;;1.15;;
635;SDS011;302;50.206;8.196;2023-03-31T15:01:18;2.33;;;1.00;;
635;SDS011;302;50.206;8.196;2023-03-31T15:03:43;2.58;;;1.00;;
635;SDS011;302;50.206;8.196;2023-03-31T15:06:09;2.27;;;1.00;;
635;SDS011;302;50.206;8.196;2023-03-31T15:08:35;2.40;;;1.50;;
635;SDS011;302;50.206;8.196;2023-03-31T15:11:03;2.38;;;0.82;;
635;SDS011;302;50.206;8.196;2023-03-31T15:13:37;1.10;;;0.70;;
635;SDS011;302;50.206;8.196;2023-03-31T15:18:46;1.10;;;0.70;;
635;SDS011;302;50.206;8.196;2023-03-31T15:21:23;1.03;;;0.77;;
635;SDS011;302;50.206;8.196;2023-03-31T15:23:51;1.17;;;1.05;;
635;SDS011;302;50.206;8.196;2023-03-31T15:26:17;1.00;;;0.70;;
635;SDS011;302;50.206;8.196;2023-03-31T15:28:54;2.20;;;0.70;;
635;SDS011;302;50.206;8.196;2023-03-31T15:31:21;1.42;;;0.70;;
635;SDS011;302;50.206;8.196;2023-03-31T15:33:46;1.00;;;0.60;;
635;SDS011;302;50.206;8.196;2023-03-31T15:36:12;1.47;;;1.00;;
635;SDS011;302;50.206;8.196;2023-03-31T15:38:38;1.27;;;1.08;;
635;SDS011;302;50.206;8.196;2023-03-31T15:41:03;1.20;;;0.70;;
635;SDS011;302;50.206;8.196;2023-03-31T15:46:57;1.70;;;0.82;;
635;SDS011;302;50.206;8.196;2023-03-31T15:49:03;1.45;;;0.80;;
635;SDS011;302;50.206;8.196;2023-03-31T15:51:30;1.85;;;0.80;;
635;SDS011;302;50.206;8.196;2023-03-31T15:53:56;1.95;;;0.82;;
635;SDS011;302;50.206;8.196;2023-03-31T15:56:36;2.17;;;0.90;;
635;SDS011;302;50.206;8.196;2023-03-31T15:59:04;1.33;;;0.77;;
635;SDS011;302;50.206;8.196;2023-03-31T16:01:31;3.20;;;1.47;;
635;SDS011;302;50.206;8.196;2023-03-31T16:03:57;2.97;;;1.10;;
635;SDS011;302;50.206;8.196;2023-03-31T16:06:28;2.10;;;1.00;;
635;SDS011;302;50.206;8.196;2023-03-31T16:08:57;5.82;;;1.35;;
635;SDS011;302;50.206;8.196;2023-03-31T16:11:35;2.40;;;0.90;;
635;SDS011;302;50.206;8.196;2023-03-31T16:14:04;2.28;;;1.33;;
635;SDS011;302;50.206;8.196;2023-03-31T16:16:32;1.73;;;0.80;;
635;SDS011;302;50.206;8.196;2023-03-31T16:19:07;1.33;;;0.90;;
635;SDS011;302;50.206;8.196;2023-03-31T16:21:42;1.38;;;0.73;;
635;SDS011;302;50.206;8.196;2023-03-31T16:24:08;2.00;;;0.98;;
635;SDS011;302;50.206;8.196;2023-03-31T16:26:33;2.50;;;0.90;;
635;SDS011;302;50.206;8.196;2023-03-31T16:29:00;2.42;;;1.02;;
635;SDS011;302;50.206;8.196;2023-03-31T16:33:59;1.70;;;0.93;;
635;SDS011;302;50.206;8.196;2023-03-31T16:36:25;1.50;;;1.08;;
635;SDS011;302;50.206;8.196;2023-03-31T16:38:51;1.20;;;0.97;;
635;SDS011;302;50.206;8.196;2023-03-31T16:41:17;2.63;;;1.40;;
635;SDS011;302;50.206;8.196;2023-03-31T16:43:43;2.13;;;1.03;;
635;SDS011;302;50.206;8.196;2023-03-31T16:46:09;2.70;;;1.10;;
635;SDS011;302;50.206;8.196;2023-03-31T16:48:34;1.40;;;0.90;;
635;SDS011;302;50.206;8.196;2023-03-31T16:51:00;1.00;;;0.70;;
635;SDS011;302;50.206;8.196;2023-03-31T16:53:27;1.90;;;0.70;;
635;SDS011;302;50.206;8.196;2023-03-31T16:55:52;5.22;;;1.13;;
635;SDS011;302;50.206;8.196;2023-03-31T16:58:18;2.57;;;1.20;;
635;SDS011;302;50.206;8.196;2023-03-31T17:00:43;1.70;;;0.70;;
635;SDS011;302;50.206;8.196;2023-03-31T17:03:10;1.48;;;0.90;;
635;SDS011;302;50.206;8.196;2023-03-31T17:05:36;2.40;;;0.80;;
635;SDS011;302;50.206;8.196;2023-03-31T17:08:02;1.90;;;0.83;;
635;SDS011;302;50.206;8.196;2023-03-31T17:10:27;4.40;;;1.13;;
635;SDS011;302;50.206;8.196;2023-03-31T17:12:52;1.53;;;0.70;;
635;SDS011;302;50.206;8.196;2023-03-31T17:15:17;4.90;;;1.47;;
635;SDS011;302;50.206;8.196;2023-03-31T17:17:42;2.90;;;1.13;;
635;SDS011;302;50.206;8.196;2023-03-31T17:20:08;4.50;;;1.63;;
635;SDS011;302;50.206;8.196;2023-03-31T17:22:34;1.87;;;1.10;;
635;SDS011;302;50.206;8.196;2023-03-31T17:24:59;1.83;;;0.67;;
635;SDS011;302;50.206;8.196;2023-03-31T17:27:25;1.83;;;0.90;;
635;SDS011;302;50.206;8.196;2023-03-31T17:29:51;1.02;;;0.70;;
635;SDS011;302;50.206;8.196;2023-03-31T17:32:16;1.13;;;0.60;;
635;SDS011;302;50.206;8.196;2023-03-31T17:34:42;1.77;;;0.90;;
635;SDS011;302;50.206;8.196;2023-03-31T17:37:08;2.33;;;1.40;;
635;SDS011;302;50.206;8.196;2023-03-31T17:39:33;1.00;;;0.67;;
635;SDS011;302;50.206;8.196;2023-03-31T17:41:58;1.10;;;0.80;;
635;SDS011;302;50.206;8.196;2023-03-31T17:44:23;1.05;;;0.50;;
635;SDS011;302;50.206;8.196;2023-03-31T17:46:48;2.60;;;0.87;;
635;SDS011;302;50.206;8.196;2023-03-31T17:49:13;5.47;;;1.00;;
635;SDS011;302;50.206;8.196;2023-03-31T17:51:38;2.27;;;0.70;;
635;SDS011;302;50.206;8.196;2023-03-31T17:54:04;2.23;;;1.00;;
635;SDS011;302;50.206;8.196;2023-03-31T17:56:29;1.53;;;0.90;;
635;SDS011;302;50.206;8.196;2023-03-31T17:58:54;1.00;;;0.50;;
635;SDS011;302;50.206;8.196;2023-03-31T18:01:20;3.80;;;1.00;;
635;SDS011;302;50.206;8.196;2023-03-31T18:03:45;1.20;;;0.80;;
635;SDS011;302;50.206;8.196;2023-03-31T18:06:12;2.42;;;0.60;;
635;SDS011;302;50.206;8.196;2023-03-31T18:08:38;1.10;;;0.77;;